createdAt,value
2022-09-21T00:00:15.406Z,4.09
2022-09-21T00:04:18.169Z,4.09
2022-09-21T00:06:19.875Z,4.09
2022-09-21T00:10:22.357Z,4.09
2022-09-21T00:12:24.134Z,4.09
2022-09-21T00:14:25.173Z,4.09
2022-09-21T00:16:26.634Z,4.09
2022-09-21T00:19:38.441Z,4.09
2022-09-21T00:21:39.893Z,4.09
2022-09-21T00:25:43.322Z,4.09
2022-09-21T00:27:44.968Z,4.08
2022-09-21T00:29:46.681Z,4.08
2022-09-21T00:31:48.376Z,4.08
2022-09-21T00:33:50.152Z,4.09
2022-09-21T00:35:51.605Z,4.08
2022-09-21T00:37:52.574Z,4.08
2022-09-21T00:41:55.444Z,4.08
2022-09-21T00:43:56.782Z,4.08
2022-09-21T00:45:57.807Z,4.08
2022-09-21T00:47:59.309Z,4.09
2022-09-21T00:50:01.221Z,4.08
2022-09-21T00:52:03.093Z,4.08
2022-09-21T00:54:04.510Z,4.08
2022-09-21T00:58:07.205Z,4.08
2022-09-21T01:00:08.283Z,4.08
2022-09-21T01:02:09.866Z,4.08
2022-09-21T01:04:10.914Z,4.08
2022-09-21T01:08:13.800Z,4.08
2022-09-21T01:10:15.741Z,4.08
2022-09-21T01:12:16.818Z,4.08
2022-09-21T01:14:18.707Z,4.08
2022-09-21T01:16:20.305Z,4.08
2022-09-21T01:18:21.527Z,4.08
2022-09-21T01:20:22.991Z,4.08
2022-09-21T01:24:26.158Z,4.08
2022-09-21T01:26:27.542Z,4.08
2022-09-21T01:28:29.142Z,4.08
2022-09-21T01:30:30.407Z,4.08
2022-09-21T01:34:33.917Z,4.08
2022-09-21T01:36:34.975Z,4.08
2022-09-21T01:38:36.729Z,4.07
2022-09-21T01:40:37.958Z,4.07
2022-09-21T01:42:39.100Z,4.08
2022-09-21T01:44:40.658Z,4.07
2022-09-21T01:46:41.735Z,4.07
2022-09-21T01:48:43.325Z,4.07
2022-09-21T01:50:44.973Z,4.07
2022-09-21T01:52:46.373Z,4.08
2022-09-21T01:56:49.212Z,4.08
2022-09-21T01:58:51.183Z,4.07
2022-09-21T02:00:52.523Z,4.07
2022-09-21T02:02:54.020Z,4.07
2022-09-21T02:04:55.395Z,4.07
2022-09-21T02:06:56.553Z,4.07
2022-09-21T02:08:58.161Z,4.07
2022-09-21T02:11:00.072Z,4.07
2022-09-21T02:13:01.790Z,4.07
2022-09-21T02:17:04.638Z,4.07
2022-09-21T02:19:06.194Z,4.07
2022-09-21T02:21:08.132Z,4.07
2022-09-21T02:23:09.206Z,4.07
2022-09-21T02:25:10.987Z,4.07
2022-09-21T02:27:12.839Z,4.07
2022-09-21T02:29:14.082Z,4.07
2022-09-21T02:33:17.909Z,4.07
2022-09-21T02:35:19.747Z,4.07
2022-09-21T02:39:21.859Z,4.06
2022-09-21T02:41:23.544Z,4.07
2022-09-21T02:43:24.878Z,4.06
2022-09-21T02:45:26.267Z,4.06
2022-09-21T02:49:29.508Z,4.06
2022-09-21T02:51:31.020Z,4.06
2022-09-21T02:53:32.180Z,4.06
2022-09-21T02:55:33.917Z,4.06
2022-09-21T02:59:36.757Z,4.06
2022-09-21T03:01:38.013Z,4.06
2022-09-21T03:05:41.002Z,4.06
2022-09-21T03:07:42.513Z,4.06
2022-09-21T03:09:43.880Z,4.06
2022-09-21T03:11:45.717Z,4.06
2022-09-21T03:15:48.975Z,4.06
2022-09-21T03:17:50.408Z,4.06
2022-09-21T03:19:51.617Z,4.06
2022-09-21T03:21:53.556Z,4.06
2022-09-21T03:23:55.080Z,4.06
2022-09-21T03:25:56.556Z,4.06
2022-09-21T03:27:58.513Z,4.06
2022-09-21T03:32:02.066Z,4.06
2022-09-21T03:34:03.221Z,4.06
2022-09-21T03:36:05.193Z,4.06
2022-09-21T03:38:06.460Z,4.06
2022-09-21T03:40:08.345Z,4.06
2022-09-21T03:42:09.693Z,4.06
2022-09-21T03:44:10.963Z,4.05
2022-09-21T03:48:14.144Z,4.06
2022-09-21T03:50:15.258Z,4.05
2022-09-21T03:52:17.332Z,4.06
2022-09-21T03:54:19.198Z,4.06
2022-09-21T03:58:21.129Z,4.05
2022-09-21T04:00:22.939Z,4.06
2022-09-21T04:02:24.375Z,4.06
2022-09-21T04:04:26.278Z,4.06
2022-09-21T04:06:27.349Z,4.05
2022-09-21T04:08:28.697Z,4.06
2022-09-21T04:10:29.993Z,4.06
2022-09-21T04:14:32.392Z,4.05
2022-09-21T04:16:33.952Z,4.05
2022-09-21T04:18:35.867Z,4.05
2022-09-21T04:20:37.379Z,4.05
2022-09-21T04:22:43.263Z,4.05
2022-09-21T04:26:42.400Z,4.05
2022-09-21T04:30:45.782Z,4.05
2022-09-21T04:32:46.796Z,4.05
2022-09-21T04:34:48.611Z,4.05
2022-09-21T04:36:49.731Z,4.05
2022-09-21T04:38:51.199Z,4.05
2022-09-21T04:40:52.315Z,4.05
2022-09-21T04:42:54.205Z,4.05
2022-09-21T04:46:57.340Z,4.05
2022-09-21T04:48:58.879Z,4.05
2022-09-21T04:51:00.892Z,4.05
2022-09-21T04:53:02.157Z,4.04
2022-09-21T04:57:05.577Z,4.05
2022-09-21T04:59:07.078Z,4.04
2022-09-21T05:01:08.934Z,4.05
2022-09-21T05:03:10.471Z,4.04
2022-09-21T05:05:11.416Z,4.05
2022-09-21T05:07:12.878Z,4.04
2022-09-21T05:09:14.564Z,4.04
2022-09-21T05:13:19.786Z,4.04
2022-09-21T05:15:18.986Z,4.04
2022-09-21T05:17:20.182Z,4.04
2022-09-21T05:19:21.513Z,4.04
2022-09-21T05:21:22.561Z,4.04
2022-09-21T05:23:24.463Z,4.04
2022-09-21T05:25:26.083Z,4.04
2022-09-21T05:27:27.181Z,4.04
2022-09-21T05:29:28.921Z,4.04
2022-09-21T05:31:30.572Z,4.04
2022-09-21T05:33:31.664Z,4.04
2022-09-21T05:35:32.822Z,4.04
2022-09-21T05:39:35.382Z,4.04
2022-09-21T05:41:36.423Z,4.04
2022-09-21T05:45:39.993Z,4.04
2022-09-21T05:47:41.413Z,4.04
2022-09-21T05:49:43.224Z,4.04
2022-09-21T05:51:45.174Z,4.04
2022-09-21T05:55:48.014Z,4.04
2022-09-21T05:57:49.870Z,4.04
2022-09-21T05:59:52.743Z,4.04
2022-09-21T06:01:53.522Z,4.04
2022-09-21T06:03:54.908Z,4.04
2022-09-21T06:05:56.795Z,4.04
2022-09-21T06:07:58.228Z,4.04
2022-09-21T06:12:01.866Z,4.04
2022-09-21T06:14:03.651Z,4.04
2022-09-21T06:16:05.468Z,4.04
2022-09-21T06:18:06.809Z,4.04
2022-09-21T06:20:08.460Z,4.04
2022-09-21T06:22:09.949Z,4.04
2022-09-21T06:24:11.629Z,4.04
2022-09-21T06:28:14.585Z,4.04
2022-09-21T06:30:15.633Z,4.04
2022-09-21T06:34:19.110Z,4.04
2022-09-21T06:36:20.397Z,4.04
2022-09-21T06:38:21.390Z,4.04
2022-09-21T06:40:22.810Z,4.04
2022-09-21T06:44:26.153Z,4.05
2022-09-21T06:46:28.038Z,4.05
2022-09-21T06:48:29.587Z,4.05
2022-09-21T06:50:30.607Z,4.06
2022-09-21T06:54:33.676Z,4.05
2022-09-21T06:56:34.885Z,4.06
2022-09-21T06:58:36.493Z,4.06
2022-09-21T07:00:38.461Z,4.06
2022-09-21T07:02:40.051Z,4.06
2022-09-21T07:03:23.887Z,4.06
2022-09-21T07:05:24.990Z,4.06
2022-09-21T07:07:26.187Z,4.06
2022-09-21T07:11:29.522Z,4.07
2022-09-21T07:15:31.989Z,4.07
2022-09-21T07:17:33.473Z,4.07
2022-09-21T07:19:35.279Z,4.07
2022-09-21T07:21:36.842Z,4.07
2022-09-21T07:23:38.728Z,4.08
2022-09-21T07:25:40.193Z,4.08
2022-09-21T07:27:41.742Z,4.08
2022-09-21T07:29:43.131Z,4.08
2022-09-21T07:33:45.437Z,4.08
2022-09-21T07:35:47.212Z,4.08
2022-09-21T07:37:48.983Z,4.08
2022-09-21T07:39:50.697Z,4.09
2022-09-21T07:41:51.810Z,4.09
2022-09-21T07:43:53.395Z,4.09
2022-09-21T07:47:56.510Z,4.09
2022-09-21T07:49:58.338Z,4.09
2022-09-21T07:52:03.810Z,4.09
2022-09-21T07:56:02.836Z,4.1
2022-09-21T07:58:04.166Z,4.1
2022-09-21T08:00:05.518Z,4.1
2022-09-21T08:02:07.192Z,4.1
2022-09-21T08:04:08.859Z,4.1
2022-09-21T08:08:11.788Z,4.11
2022-09-21T08:10:12.881Z,4.11
2022-09-21T08:12:14.371Z,4.12
2022-09-21T08:14:16.274Z,4.12
2022-09-21T08:18:19.369Z,4.12
2022-09-21T08:20:20.513Z,4.13
2022-09-21T08:22:21.994Z,4.14
2022-09-21T08:26:25.694Z,4.15
2022-09-21T08:30:28.539Z,4.16
2022-09-21T08:32:49.702Z,4.16
2022-09-21T08:34:31.670Z,4.16
2022-09-21T08:40:36.486Z,4.17
2022-09-21T08:42:37.965Z,4.17
2022-09-21T08:44:40.399Z,4.17
2022-09-21T08:46:41.779Z,4.17
2022-09-21T08:48:43.564Z,4.17
2022-09-21T08:50:44.512Z,4.17
2022-09-21T08:52:47.760Z,4.18
2022-09-21T08:57:04.285Z,4.18
2022-09-21T08:58:51.384Z,4.18
2022-09-21T09:02:53.946Z,4.18
2022-09-21T09:04:54.849Z,4.19
2022-09-21T09:08:57.291Z,4.19
2022-09-21T09:12:59.613Z,4.19
2022-09-21T09:15:01.196Z,4.19
2022-09-21T09:17:02.434Z,4.19
2022-09-21T09:21:05.167Z,4.19
2022-09-21T09:23:06.775Z,4.19
2022-09-21T09:25:08.247Z,4.19
2022-09-21T09:29:11.440Z,4.19
2022-09-21T09:31:12.798Z,4.2
2022-09-21T09:33:14.454Z,4.2
2022-09-21T09:35:16.010Z,4.2
2022-09-21T09:39:18.148Z,4.2
2022-09-21T09:41:19.071Z,4.2
2022-09-21T09:45:23.575Z,4.2
2022-09-21T09:47:23.374Z,4.2
2022-09-21T09:49:25.398Z,4.2
2022-09-21T09:51:26.517Z,4.2
2022-09-21T09:55:29.040Z,4.2
2022-09-21T09:57:30.061Z,4.2
2022-09-21T09:59:31.157Z,4.2
2022-09-21T10:01:32.938Z,4.2
2022-09-21T10:03:34.371Z,4.2
2022-09-21T10:05:36.190Z,4.2
2022-09-21T10:07:38.269Z,4.2
2022-09-21T10:09:38.603Z,4.2
2022-09-21T10:11:40.221Z,4.2
2022-09-21T10:13:41.641Z,4.2
2022-09-21T10:15:43.352Z,4.2
2022-09-21T10:17:44.601Z,4.19
2022-09-21T10:19:45.528Z,4.19
2022-09-21T10:21:51.348Z,4.19
2022-09-21T10:27:50.441Z,4.19
2022-09-21T10:29:51.938Z,4.19
2022-09-21T10:31:53.045Z,4.19
2022-09-21T10:33:54.522Z,4.19
2022-09-21T10:37:56.958Z,4.19
2022-09-21T10:39:58.233Z,4.19
2022-09-21T10:44:00.405Z,4.19
2022-09-21T10:46:01.721Z,4.19
2022-09-21T10:48:02.937Z,4.18
2022-09-21T10:50:04.286Z,4.19
2022-09-21T10:54:07.095Z,4.19
2022-09-21T10:56:16.564Z,4.18
2022-09-21T10:58:10.097Z,4.18
2022-09-21T11:00:11.391Z,4.18
2022-09-21T11:04:14.568Z,4.18
2022-09-21T11:06:16.011Z,4.18
2022-09-21T11:08:17.864Z,4.18
2022-09-21T11:10:19.887Z,4.18
2022-09-21T11:12:20.785Z,4.18
2022-09-21T11:14:21.986Z,4.18
2022-09-21T11:16:23.281Z,4.18
2022-09-21T11:20:25.389Z,4.18
2022-09-21T11:22:26.720Z,4.18
2022-09-21T11:24:28.262Z,4.18
2022-09-21T11:26:29.728Z,4.17
2022-09-21T11:28:31.461Z,4.18
2022-09-21T11:30:33.280Z,4.17
2022-09-21T11:32:34.441Z,4.17
2022-09-21T11:36:38.062Z,4.17
2022-09-21T11:38:42.639Z,4.17
2022-09-21T11:40:40.506Z,4.17
2022-09-21T11:42:41.635Z,4.17
2022-09-21T11:44:42.925Z,4.17
2022-09-21T11:48:45.453Z,4.17
2022-09-21T11:52:47.578Z,4.17
2022-09-21T11:54:48.948Z,4.17
2022-09-21T11:56:50.455Z,4.17
2022-09-21T11:58:52.998Z,4.17
2022-09-21T12:00:52.776Z,4.17
2022-09-21T12:02:54.353Z,4.17
2022-09-21T12:04:55.956Z,4.17
2022-09-21T12:08:57.928Z,4.17
2022-09-21T12:10:59.534Z,4.17
2022-09-21T12:13:00.818Z,4.17
2022-09-21T12:15:01.868Z,4.17
2022-09-21T12:19:05.142Z,4.17
2022-09-21T12:21:06.870Z,4.17
2022-09-21T12:23:08.154Z,4.17
2022-09-21T12:25:09.421Z,4.17
2022-09-21T12:27:10.924Z,4.17
2022-09-21T12:29:12.159Z,4.17
2022-09-21T12:31:13.266Z,4.17
2022-09-21T12:35:15.505Z,4.17
2022-09-21T12:37:17.312Z,4.17
2022-09-21T12:39:18.977Z,4.16
2022-09-21T12:43:22.134Z,4.16
2022-09-21T12:45:23.929Z,4.17
2022-09-21T12:47:25.088Z,4.17
2022-09-21T12:49:26.310Z,4.16
2022-09-21T12:51:27.259Z,4.16
2022-09-21T12:53:28.511Z,4.16
2022-09-21T12:57:45.953Z,4.16
2022-09-21T13:01:34.432Z,4.16
2022-09-21T13:03:35.836Z,4.16
2022-09-21T13:05:37.299Z,4.16
2022-09-21T13:07:38.350Z,4.16
2022-09-21T13:09:40.130Z,4.16
2022-09-21T13:11:41.206Z,4.16
2022-09-21T13:13:42.724Z,4.16
2022-09-21T13:17:45.729Z,4.16
2022-09-21T13:19:46.767Z,4.16
2022-09-21T13:23:49.248Z,4.16
2022-09-21T13:25:50.501Z,4.16
2022-09-21T13:27:51.824Z,4.16
2022-09-21T13:29:53.508Z,4.16
2022-09-21T13:31:55.347Z,4.16
2022-09-21T13:33:57.092Z,4.16
2022-09-21T13:35:58.220Z,4.15
2022-09-21T13:37:59.067Z,4.16
2022-09-21T13:40:00.560Z,4.16
2022-09-21T13:44:04.888Z,4.16
2022-09-21T13:46:04.673Z,4.16
2022-09-21T13:48:49.680Z,4.16
2022-09-21T13:50:50.913Z,4.15
2022-09-21T13:52:51.865Z,4.15
2022-09-21T13:54:53.353Z,4.16
2022-09-21T13:56:54.945Z,4.16
2022-09-21T13:58:56.281Z,4.15
2022-09-21T14:00:57.489Z,4.16
2022-09-21T14:02:58.755Z,4.15
2022-09-21T14:07:01.439Z,4.15
2022-09-21T14:09:02.511Z,4.15
2022-09-21T14:11:03.567Z,4.15
2022-09-21T14:13:04.540Z,4.16
2022-09-21T14:15:06.376Z,4.15
2022-09-21T14:17:07.558Z,4.15
2022-09-21T14:21:10.414Z,4.15
2022-09-21T14:23:11.485Z,4.15
2022-09-21T14:25:13.137Z,4.15
2022-09-21T14:27:14.881Z,4.15
2022-09-21T14:29:16.120Z,4.15
2022-09-21T14:31:17.899Z,4.15
2022-09-21T14:33:19.477Z,4.15
2022-09-21T14:37:24.414Z,4.15
2022-09-21T14:39:23.538Z,4.15
2022-09-21T14:43:26.779Z,4.15
2022-09-21T14:45:27.818Z,4.14
2022-09-21T14:49:30.570Z,4.14
2022-09-21T14:53:32.651Z,4.18
2022-09-21T14:55:33.942Z,4.18
2022-09-21T14:57:34.763Z,4.18
2022-09-21T14:59:35.673Z,4.19
2022-09-21T15:01:36.939Z,4.19
2022-09-21T15:03:38.643Z,4.19
2022-09-21T15:05:39.503Z,4.19
2022-09-21T15:07:41.281Z,4.19
2022-09-21T15:09:42.158Z,4.19
2022-09-21T15:11:43.646Z,4.19
2022-09-21T15:13:44.483Z,4.19
2022-09-21T15:15:46.371Z,4.19
2022-09-21T15:19:48.559Z,4.19
2022-09-21T15:21:49.673Z,4.19
2022-09-21T15:23:51.188Z,4.2
2022-09-21T15:25:52.674Z,4.2
2022-09-21T15:27:54.183Z,4.19
2022-09-21T15:29:55.522Z,4.19
2022-09-21T15:31:57.038Z,4.2
2022-09-21T15:35:59.824Z,4.2
2022-09-21T15:38:01.090Z,4.19
2022-09-21T15:40:02.140Z,4.2
2022-09-21T15:42:03.551Z,4.2
2022-09-21T15:44:04.421Z,4.2
2022-09-21T15:46:05.345Z,4.2
2022-09-21T15:48:06.474Z,4.21
2022-09-21T15:52:09.375Z,4.2
2022-09-21T15:54:10.298Z,4.2
2022-09-21T15:56:12.050Z,4.21
2022-09-21T15:58:13.881Z,4.19
2022-09-21T16:02:16.240Z,4.19
2022-09-21T16:04:17.606Z,4.19
2022-09-21T16:06:18.908Z,4.19
2022-09-21T16:08:20.702Z,4.19
2022-09-21T16:10:22.140Z,4.19
2022-09-21T16:12:23.666Z,4.19
2022-09-21T16:14:24.710Z,4.19
2022-09-21T16:16:26.630Z,4.18
2022-09-21T16:20:28.942Z,4.18
2022-09-21T16:24:32.169Z,4.18
2022-09-21T16:26:33.642Z,4.19
2022-09-21T16:28:34.892Z,4.18
2022-09-21T16:30:36.627Z,4.18
2022-09-21T16:32:38.111Z,4.18
2022-09-21T16:34:39.071Z,4.18
2022-09-21T16:36:40.859Z,4.18
2022-09-21T16:38:42.071Z,4.18
2022-09-21T16:40:43.945Z,4.18
2022-09-21T16:44:46.664Z,4.18
2022-09-21T16:46:48.183Z,4.18
2022-09-21T16:48:49.909Z,4.18
2022-09-21T16:50:51.555Z,4.18
2022-09-21T16:54:54.183Z,4.18
2022-09-21T16:56:55.064Z,4.18
2022-09-21T17:00:59.227Z,4.18
2022-09-21T17:02:59.040Z,4.18
2022-09-21T17:04:59.945Z,4.18
2022-09-21T17:07:01.294Z,4.17
2022-09-21T17:09:02.321Z,4.18
2022-09-21T17:11:04.013Z,4.17
2022-09-21T17:13:05.263Z,4.17
2022-09-21T17:17:08.309Z,4.17
2022-09-21T17:19:09.600Z,4.17
2022-09-21T17:21:11.016Z,4.17
2022-09-21T17:23:12.360Z,4.17
2022-09-21T17:25:14.248Z,4.17
2022-09-21T17:27:15.606Z,4.17
2022-09-21T17:29:16.614Z,4.17
2022-09-21T17:33:19.575Z,4.17
2022-09-21T17:35:20.998Z,4.17
2022-09-21T17:37:22.550Z,4.17
2022-09-21T17:39:23.711Z,4.17
2022-09-21T17:43:26.714Z,4.17
2022-09-21T17:45:27.800Z,4.17
2022-09-21T17:47:28.899Z,4.17
2022-09-21T17:49:29.988Z,4.17
2022-09-21T17:51:31.817Z,4.17
2022-09-21T17:53:32.830Z,4.17
2022-09-21T17:55:33.859Z,4.17
2022-09-21T17:59:37.134Z,4.17
2022-09-21T18:01:38.181Z,4.17
2022-09-21T18:03:39.127Z,4.17
2022-09-21T18:05:40.840Z,4.16
2022-09-21T18:07:42.282Z,4.16
2022-09-21T18:09:44.134Z,4.17
2022-09-21T18:13:47.227Z,4.17
2022-09-21T18:15:48.398Z,4.16
2022-09-21T18:17:49.725Z,4.16
2022-09-21T18:19:51.011Z,4.16
2022-09-21T18:21:52.315Z,4.16
2022-09-21T18:25:54.849Z,4.16
2022-09-21T18:27:56.645Z,4.16
2022-09-21T18:31:59.206Z,4.16
2022-09-21T18:34:01.201Z,4.16
2022-09-21T18:38:04.742Z,4.16
2022-09-21T18:42:07.526Z,4.16
2022-09-21T18:44:09.325Z,4.16
2022-09-21T18:46:11.225Z,4.16
2022-09-21T18:48:13.006Z,4.16
2022-09-21T18:50:14.375Z,4.16
2022-09-21T18:52:15.907Z,4.16
2022-09-21T18:54:16.937Z,4.16
2022-09-21T18:58:19.167Z,4.16
2022-09-21T19:00:20.826Z,4.16
2022-09-21T19:02:22.406Z,4.16
2022-09-21T19:04:23.995Z,4.16
2022-09-21T19:08:26.582Z,4.15
2022-09-21T19:10:28.438Z,4.16
2022-09-21T19:14:31.912Z,4.16
2022-09-21T19:16:33.886Z,4.16
2022-09-21T19:18:35.039Z,4.16
2022-09-21T19:20:36.647Z,4.15
2022-09-21T19:24:38.843Z,4.15
2022-09-21T19:26:40.772Z,4.15
2022-09-21T19:28:42.489Z,4.15
2022-09-21T19:30:44.203Z,4.15
2022-09-21T19:32:45.847Z,4.15
2022-09-21T19:34:47.380Z,4.15
2022-09-21T19:36:48.451Z,4.15
2022-09-21T19:40:51.578Z,4.15
2022-09-21T19:42:52.541Z,4.15
2022-09-21T19:44:54.330Z,4.15
2022-09-21T19:46:55.675Z,4.15
2022-09-21T19:50:59.240Z,4.15
2022-09-21T19:53:00.464Z,4.15
2022-09-21T19:55:01.793Z,4.15
2022-09-21T19:57:02.953Z,4.15
2022-09-21T19:59:04.641Z,4.15
2022-09-21T20:03:07.579Z,4.15
2022-09-21T20:07:10.103Z,4.15
2022-09-21T20:09:11.640Z,4.14
2022-09-21T20:13:14.532Z,4.14
2022-09-21T20:15:15.533Z,4.14
2022-09-21T20:17:17.444Z,4.14
2022-09-21T20:19:18.470Z,4.14
2022-09-21T20:23:21.487Z,4.14
2022-09-21T20:25:22.488Z,4.14
2022-09-21T20:27:24.500Z,4.14
2022-09-21T20:29:25.891Z,4.14
2022-09-21T20:31:27.886Z,4.14
2022-09-21T20:33:28.998Z,4.14
2022-09-21T20:34:39.062Z,4.14
2022-09-21T20:36:40.620Z,4.14
2022-09-21T20:38:42.295Z,4.14
2022-09-21T20:40:43.715Z,4.14
2022-09-21T20:44:46.500Z,4.14
2022-09-21T20:46:48.261Z,4.14
2022-09-21T20:48:49.526Z,4.14
2022-09-21T20:52:52.808Z,4.14
2022-09-21T20:54:54.666Z,4.14
2022-09-21T20:56:56.068Z,4.14
2022-09-21T20:58:57.710Z,4.14
2022-09-21T21:00:59.230Z,4.14
2022-09-21T21:03:00.386Z,4.14
2022-09-21T21:05:02.040Z,4.13
2022-09-21T21:07:03.537Z,4.14
2022-09-21T21:11:06.941Z,4.14
2022-09-21T21:13:08.708Z,4.14
2022-09-21T21:15:09.743Z,4.13
2022-09-21T21:17:11.717Z,4.13
2022-09-21T21:19:12.811Z,4.13
2022-09-21T21:21:14.300Z,4.14
2022-09-21T21:23:16.242Z,4.13
2022-09-21T21:27:19.257Z,4.13
2022-09-21T21:29:20.816Z,4.13
2022-09-21T21:31:22.243Z,4.13
2022-09-21T21:33:24.101Z,4.13
2022-09-21T21:37:27.218Z,4.13
2022-09-21T21:39:28.851Z,4.13
2022-09-21T21:43:31.877Z,4.13
2022-09-21T21:45:33.672Z,4.13
2022-09-21T21:47:39.590Z,4.13
2022-09-21T21:49:36.757Z,4.13
2022-09-21T21:53:39.763Z,4.13
2022-09-21T21:55:41.562Z,4.13
2022-09-21T21:57:42.692Z,4.13
2022-09-21T21:59:43.805Z,4.12
2022-09-21T22:01:45.742Z,4.13
2022-09-21T22:03:46.897Z,4.13
2022-09-21T22:05:48.787Z,4.13
2022-09-21T22:09:51.385Z,4.13
2022-09-21T22:11:53.127Z,4.12
2022-09-21T22:15:56.738Z,4.12
2022-09-21T22:17:58.336Z,4.13
2022-09-21T22:19:59.832Z,4.12
2022-09-21T22:22:01.481Z,4.12
2022-09-21T22:24:02.997Z,4.12
2022-09-21T22:26:04.148Z,4.12
2022-09-21T22:28:06.195Z,4.12
2022-09-21T22:30:07.420Z,4.12
2022-09-21T22:32:08.909Z,4.12
2022-09-21T22:36:12.595Z,4.12
2022-09-21T22:38:14.104Z,4.12
2022-09-21T22:40:16.139Z,4.12
2022-09-21T22:42:17.997Z,4.12
2022-09-21T22:44:19.232Z,4.12
2022-09-21T22:46:20.616Z,4.12
2022-09-21T22:48:21.775Z,4.12
2022-09-21T22:52:24.961Z,4.12
2022-09-21T22:54:26.080Z,4.12
2022-09-21T22:58:28.960Z,4.12
2022-09-21T23:02:31.519Z,4.12
2022-09-21T23:04:33.232Z,4.12
2022-09-21T23:06:35.162Z,4.12
2022-09-21T23:08:36.668Z,4.12
2022-09-21T23:10:38.442Z,4.12
2022-09-21T23:14:41.890Z,4.12
2022-09-21T23:18:45.146Z,4.11
2022-09-21T23:20:46.231Z,4.12
2022-09-21T23:22:47.741Z,4.12
2022-09-21T23:24:49.303Z,4.11
2022-09-21T23:26:51.166Z,4.11
2022-09-21T23:28:53.101Z,4.12
2022-09-21T23:30:54.174Z,4.11
2022-09-21T23:32:55.732Z,4.11
2022-09-21T23:34:57.069Z,4.11
2022-09-21T23:36:58.823Z,4.11
2022-09-21T23:38:59.954Z,4.11
2022-09-21T23:41:01.800Z,4.11
2022-09-21T23:43:03.044Z,4.11
2022-09-21T23:47:06.543Z,4.11
2022-09-21T23:49:07.683Z,4.11
2022-09-21T23:51:09.227Z,4.11
2022-09-21T23:53:10.589Z,4.11
2022-09-21T23:55:11.642Z,4.11
2022-09-21T23:57:13.369Z,4.11
2022-09-21T23:59:14.596Z,4.11
